Time;durP1;ratioP1;P1;durP2;ratioP2;P2;SDS_P1;SDS_P2;PMS_P1;PMS_P2;Temp;Humidity;BMP_temperature;BMP_pressure;BME280_temperature;BME280_humidity;BME280_pressure;Samples;Min_cycle;Max_cycle;Signal;HPM_P1;HPM_P2
2023/09/30 00:01:58;;;;;;;11.78;6.90;;;;;;;20.91;93.69;100662.48;4982293;56;1141021;-73
2023/09/30 00:07:04;;;;;;;13.35;6.92;;;;;;;20.92;93.61;100669.53;4981086;57;1140901;-71
2023/09/30 00:12:10;;;;;;;12.90;7.75;;;;;;;20.90;93.39;100673.42;5036794;56;1141056;-74
2023/09/30 00:17:16;;;;;;;14.13;7.80;;;;;;;20.84;93.61;100669.59;5032165;56;1140896;-73
2023/09/30 00:22:21;;;;;;;15.20;8.63;;;;;;;20.85;93.74;100673.95;4916574;57;1140943;-72
2023/09/30 00:27:27;;;;;;;9.00;6.85;;;;;;;20.84;93.80;100673.63;4916825;57;1140952;-73
2023/09/30 00:32:33;;;;;;;13.83;7.10;;;;;;;20.79;94.15;100677.36;5017461;55;1138758;-72
2023/09/30 00:37:42;;;;;;;11.70;7.87;;;;;;;20.78;94.29;100678.91;4916199;57;1140732;-73
2023/09/30 00:42:47;;;;;;;15.90;7.80;;;;;;;20.70;94.65;100677.11;4997222;56;1141141;-71
2023/09/30 00:47:53;;;;;;;10.50;6.50;;;;;;;20.66;95.04;100675.28;4934740;57;1140937;-73
2023/09/30 00:52:59;;;;;;;10.90;7.47;;;;;;;20.63;95.16;100675.64;5015205;57;1140861;-73
2023/09/30 00:58:05;;;;;;;12.98;7.15;;;;;;;20.61;95.39;100674.17;4995513;57;1140873;-73
2023/09/30 01:03:12;;;;;;;11.53;7.35;;;;;;;20.55;95.93;100674.88;5013187;57;1140776;-72
2023/09/30 01:08:19;;;;;;;9.58;7.37;;;;;;;20.51;96.10;100679.77;4973650;57;1141021;-72
2023/09/30 01:13:28;;;;;;;13.58;6.08;;;;;;;20.48;95.98;100683.31;4937145;57;1138849;-74
2023/09/30 01:18:34;;;;;;;10.85;6.55;;;;;;;20.40;96.21;100684.23;4992913;56;1140855;-71
2023/09/30 01:23:40;;;;;;;10.82;7.28;;;;;;;20.35;96.76;100687.91;5016282;56;1140850;-72
2023/09/30 01:28:48;;;;;;;13.78;7.00;;;;;;;20.27;97.11;100700.91;4946925;57;1140894;-73
2023/09/30 01:33:54;;;;;;;17.87;6.80;;;;;;;20.19;97.97;100711.68;4996242;57;1141121;-73
2023/09/30 01:39:02;;;;;;;12.88;5.80;;;;;;;20.13;99.13;100708.88;5051762;56;1141152;-70
2023/09/30 01:44:09;;;;;;;7.35;6.40;;;;;;;20.05;99.98;100712.94;5071850;56;1140760;-74
2023/09/30 01:49:15;;;;;;;9.33;6.53;;;;;;;19.97;100.00;100712.48;4995879;57;1138881;-74
2023/09/30 01:54:21;;;;;;;20.50;6.67;;;;;;;19.90;100.00;100723.58;4997564;56;1140877;-71
2023/09/30 01:59:27;;;;;;;9.40;5.65;;;;;;;19.81;100.00;100739.39;5099301;56;1142987;-74
2023/09/30 02:04:33;;;;;;;12.28;6.80;;;;;;;19.72;100.00;100744.44;5030695;56;1141007;-72
2023/09/30 02:09:39;;;;;;;9.25;7.10;;;;;;;19.71;100.00;100739.58;4929575;57;1142984;-73
2023/09/30 02:14:46;;;;;;;9.58;6.67;;;;;;;19.64;100.00;100754.20;4954773;57;1141017;-73
2023/09/30 02:19:53;;;;;;;9.90;7.03;;;;;;;19.55;100.00;100747.70;4976287;57;1141033;-71
2023/09/30 02:24:58;;;;;;;9.03;7.50;;;;;;;19.45;100.00;100757.23;4914006;58;1141044;-71
2023/09/30 02:30:06;;;;;;;10.23;6.37;;;;;;;19.36;100.00;100762.79;4983117;57;1140819;-72
2023/09/30 02:35:11;;;;;;;11.10;7.58;;;;;;;19.25;100.00;100774.68;4993001;56;1152519;-73
2023/09/30 02:40:17;;;;;;;14.05;7.62;;;;;;;19.15;100.00;100784.25;4965506;56;1143117;-72
2023/09/30 02:45:22;;;;;;;9.58;7.40;;;;;;;19.11;100.00;100796.81;5030876;56;1142765;-73
2023/09/30 02:50:28;;;;;;;12.13;7.28;;;;;;;19.03;100.00;100803.52;5024131;56;1140902;-72
2023/09/30 02:55:34;;;;;;;14.03;8.90;;;;;;;19.01;100.00;100802.34;5014792;57;1143005;-73
2023/09/30 03:00:39;;;;;;;14.75;8.58;;;;;;;18.95;100.00;100803.84;5022765;55;1142920;-72
2023/09/30 03:05:45;;;;;;;10.00;7.75;;;;;;;18.91;100.00;100807.88;5104051;56;1143290;-72
2023/09/30 03:10:51;;;;;;;8.73;7.47;;;;;;;18.86;100.00;100818.25;4953725;56;1142919;-70
2023/09/30 03:15:56;;;;;;;8.37;6.57;;;;;;;18.80;100.00;100817.55;4976054;57;1141515;-74
2023/09/30 03:21:08;;;;;;;16.10;7.67;;;;;;;18.80;100.00;100822.07;5011834;57;1140962;-71
2023/09/30 03:26:15;;;;;;;9.80;7.10;;;;;;;18.77;100.00;100822.42;4993162;57;1143256;-75
2023/09/30 03:31:25;;;;;;;19.97;6.50;;;;;;;18.75;100.00;100828.45;4936983;57;1140808;-74
2023/09/30 03:36:30;;;;;;;11.90;7.45;;;;;;;18.72;100.00;100839.48;4950775;57;1143077;-71
2023/09/30 03:41:36;;;;;;;13.15;7.08;;;;;;;18.69;100.00;100854.55;5020221;57;1143002;-72
2023/09/30 03:46:43;;;;;;;10.93;6.85;;;;;;;18.66;100.00;100861.06;5019809;56;1142965;-74
2023/09/30 03:51:50;;;;;;;8.53;6.30;;;;;;;18.67;100.00;100857.88;5104368;56;1143181;-72
2023/09/30 03:56:56;;;;;;;7.33;5.35;;;;;;;18.66;100.00;100873.12;5124813;56;1141188;-74
2023/09/30 04:02:01;;;;;;;10.30;6.00;;;;;;;18.68;100.00;100883.67;5098182;56;1140902;-74
2023/09/30 04:07:09;;;;;;;5.50;4.58;;;;;;;18.66;100.00;100887.02;4959667;56;1143150;-73
2023/09/30 04:12:15;;;;;;;9.40;3.65;;;;;;;18.64;100.00;100902.44;4978313;57;1140787;-71
2023/09/30 04:17:22;;;;;;;6.90;3.20;;;;;;;18.53;100.00;100912.39;4970756;57;1140839;-73
2023/09/30 04:22:29;;;;;;;9.45;1.72;;;;;;;18.45;100.00;100922.24;4958712;57;1140808;-71
2023/09/30 04:27:35;;;;;;;3.60;1.80;;;;;;;18.33;100.00;100932.41;4977918;57;1141136;-73
2023/09/30 04:32:41;;;;;;;4.10;2.30;;;;;;;18.21;100.00;100952.39;5018139;56;1140911;-71
2023/09/30 04:37:46;;;;;;;2.95;1.82;;;;;;;18.13;100.00;100949.67;5015034;57;1141071;-71
2023/09/30 04:42:55;;;;;;;1.95;1.20;;;;;;;18.05;100.00;100965.16;5010570;57;1140760;-72
2023/09/30 04:48:01;;;;;;;2.58;1.57;;;;;;;17.92;100.00;100974.94;5140874;55;1140871;-73
2023/09/30 04:53:07;;;;;;;6.47;2.05;;;;;;;17.75;100.00;100998.54;5093957;56;1140706;-71
2023/09/30 04:58:13;;;;;;;4.22;1.50;;;;;;;17.56;100.00;101008.89;5185272;55;1140721;-71
2023/09/30 05:03:19;;;;;;;7.23;1.80;;;;;;;17.46;100.00;101022.80;5122161;56;1140721;-73
2023/09/30 05:08:25;;;;;;;10.87;3.77;;;;;;;17.36;100.00;101022.04;5099881;56;1140663;-71
2023/09/30 05:13:33;;;;;;;7.30;2.20;;;;;;;17.33;100.00;101038.38;5098902;56;1143095;-73
2023/09/30 05:18:38;;;;;;;6.47;2.60;;;;;;;17.29;100.00;101046.34;5119275;56;1140925;-71
2023/09/30 05:23:44;;;;;;;7.05;2.42;;;;;;;17.30;100.00;101053.38;5099016;56;1140997;-74
2023/09/30 05:28:49;;;;;;;8.30;2.92;;;;;;;17.29;100.00;101069.56;5098201;56;1141133;-72
2023/09/30 05:33:55;;;;;;;9.37;2.10;;;;;;;17.30;100.00;101076.09;5015465;57;1141063;-73
2023/09/30 05:39:00;;;;;;;8.78;3.05;;;;;;;17.22;100.00;101087.55;4956668;57;1140939;-72
2023/09/30 05:44:07;;;;;;;11.17;2.93;;;;;;;17.17;100.00;101094.31;5021480;56;1141066;-74
2023/09/30 05:49:14;;;;;;;8.18;2.85;;;;;;;17.16;100.00;101102.83;5103504;56;1142993;-74
2023/09/30 05:54:20;;;;;;;8.33;2.67;;;;;;;17.09;100.00;101110.27;5050913;56;1141009;-71
2023/09/30 05:59:25;;;;;;;11.03;2.53;;;;;;;17.05;100.00;101115.05;5019337;56;1140963;-72
2023/09/30 06:04:33;;;;;;;8.57;2.43;;;;;;;17.01;100.00;101124.34;5063230;56;1143112;-72
2023/09/30 06:09:38;;;;;;;6.77;2.50;;;;;;;16.92;100.00;101131.91;5043518;56;1140932;-71
2023/09/30 06:14:44;;;;;;;8.40;2.30;;;;;;;16.87;100.00;101135.49;4998876;56;1141316;-72
2023/09/30 06:19:50;;;;;;;12.13;3.03;;;;;;;16.90;100.00;101140.55;5020750;56;1140886;-72
2023/09/30 06:24:56;;;;;;;13.85;3.08;;;;;;;16.96;100.00;101141.81;5097995;56;1142891;-72
2023/09/30 06:30:01;;;;;;;13.07;2.63;;;;;;;16.88;100.00;101152.72;5064332;56;1142736;-74
2023/09/30 06:35:10;;;;;;;7.80;3.17;;;;;;;16.86;100.00;101161.37;5043925;56;1142663;-73
2023/09/30 06:40:15;;;;;;;9.87;2.87;;;;;;;16.76;100.00;101178.41;5070131;56;1141117;-72
2023/09/30 06:45:21;;;;;;;10.10;3.05;;;;;;;16.83;100.00;101172.83;5076211;55;1141082;-72
2023/09/30 06:50:27;;;;;;;6.40;2.50;;;;;;;16.82;100.00;101184.00;5003338;56;1142864;-73
2023/09/30 06:55:33;;;;;;;8.70;3.80;;;;;;;16.92;100.00;101189.35;5023580;56;1140616;-71
2023/09/30 07:00:39;;;;;;;11.77;3.97;;;;;;;17.00;100.00;101200.64;4974308;56;1140959;-71
2023/09/30 07:05:45;;;;;;;13.67;4.33;;;;;;;17.13;100.00;101209.19;4966717;57;1143082;-71
2023/09/30 07:10:52;;;;;;;10.40;3.08;;;;;;;17.00;100.00;101205.98;4919250;58;1142985;-74
2023/09/30 07:15:58;;;;;;;15.97;3.93;;;;;;;17.06;100.00;101216.95;4959519;57;1143140;-71
2023/09/30 07:21:03;;;;;;;12.40;3.67;;;;;;;17.12;100.00;101234.23;4974891;58;1142966;-72
2023/09/30 07:26:09;;;;;;;11.87;4.17;;;;;;;17.18;100.00;101228.32;5078438;56;1142772;-73
2023/09/30 07:31:15;;;;;;;12.88;3.67;;;;;;;17.18;100.00;101221.15;5010115;57;1143073;-72
2023/09/30 07:36:21;;;;;;;11.07;3.80;;;;;;;17.24;100.00;101219.73;4979561;57;1142843;-72
2023/09/30 07:41:27;;;;;;;18.60;4.23;;;;;;;17.47;100.00;101225.56;4996005;57;1142750;-71
2023/09/30 07:46:33;;;;;;;11.70;3.30;;;;;;;17.28;100.00;101239.83;4935823;58;1142820;-72
2023/09/30 07:51:41;;;;;;;19.13;4.50;;;;;;;17.03;100.00;101249.80;5093298;56;1143277;-75
2023/09/30 07:56:46;;;;;;;13.73;4.93;;;;;;;17.02;100.00;101265.48;5113730;56;1142873;-71
2023/09/30 08:01:58;;;;;;;20.40;6.60;;;;;;;17.09;100.00;101266.12;5083645;56;1143137;-71
2023/09/30 08:06:59;;;;;;;15.80;4.13;;;;;;;16.81;100.00;101289.67;5095995;56;1143163;-71
2023/09/30 08:12:06;;;;;;;15.20;4.27;;;;;;;16.81;100.00;101289.67;5073123;56;1143269;-71
2023/09/30 08:17:12;;;;;;;15.83;4.20;;;;;;;16.88;100.00;101301.50;5162888;55;1143084;-70
2023/09/30 08:22:17;;;;;;;13.92;4.72;;;;;;;16.88;100.00;101301.01;5066287;56;1143110;-70
2023/09/30 08:27:28;;;;;;;17.23;4.53;;;;;;;16.67;100.00;101307.45;5013026;57;1142733;-72
2023/09/30 08:32:30;;;;;;;14.50;4.45;;;;;;;16.53;100.00;101315.34;5011172;57;1142741;-71
2023/09/30 08:37:36;;;;;;;22.60;5.87;;;;;;;16.64;100.00;101320.63;5033930;56;1142958;-71
2023/09/30 08:42:41;;;;;;;18.67;4.10;;;;;;;16.87;100.00;101325.19;5098506;57;1143368;-74
2023/09/30 08:47:48;;;;;;;23.07;6.07;;;;;;;17.00;100.00;101332.93;4995859;57;1142965;-72
2023/09/30 08:52:53;;;;;;;11.97;4.60;;;;;;;16.82;100.00;101339.45;4921894;58;1142876;-73
2023/09/30 08:57:59;;;;;;;17.20;4.62;;;;;;;16.92;100.00;101339.48;4924169;57;1143048;-73
2023/09/30 09:03:06;;;;;;;12.70;3.87;;;;;;;16.87;100.00;101343.90;5015345;57;1142967;-73
2023/09/30 09:08:12;;;;;;;16.10;4.40;;;;;;;17.03;100.00;101337.50;4980291;57;1142898;-73
2023/09/30 09:13:17;;;;;;;14.00;3.80;;;;;;;17.09;100.00;101361.50;4995637;57;1142924;-72
2023/09/30 09:18:36;;;;;;;14.40;4.60;;;;;;;17.12;100.00;101346.50;5015319;57;1143176;-72
2023/09/30 09:23:47;;;;;;;25.26;11.02;;;;;;;17.39;100.00;101345.80;4915898;57;1143026;-73
2023/09/30 09:28:58;;;;;;;12.90;3.42;;;;;;;17.69;100.00;101352.81;4990651;57;1144910;-72
2023/09/30 09:34:17;;;;;;;14.57;3.20;;;;;;;17.86;100.00;101343.53;4916064;57;1142850;-74
2023/09/30 09:39:34;;;;;;;17.16;3.78;;;;;;;17.67;97.35;101356.96;4935692;57;1142760;-74
2023/09/30 09:44:40;;;;;;;14.80;4.33;;;;;;;17.62;99.67;101355.17;4987671;58;1140968;-74
2023/09/30 09:49:46;;;;;;;17.60;4.25;;;;;;;17.71;97.08;101350.34;4993525;57;1140955;-74
2023/09/30 09:54:52;;;;;;;18.83;4.70;;;;;;;17.73;95.37;101359.53;4945945;57;1140892;-74
2023/09/30 09:59:58;;;;;;;12.13;3.57;;;;;;;17.62;94.56;101363.20;5016833;57;1141025;-73
2023/09/30 10:05:05;;;;;;;10.20;3.53;;;;;;;17.56;95.49;101381.17;5022829;56;1140920;-72
2023/09/30 10:10:17;;;;;;;15.50;3.40;;;;;;;17.56;93.73;101378.50;4994550;56;1140767;-72
2023/09/30 10:15:34;;;;;;;12.98;2.95;;;;;;;17.72;95.56;101384.11;5094286;56;1140802;-73
2023/09/30 10:20:44;;;;;;;12.03;3.55;;;;;;;17.82;92.43;101384.11;5065898;56;1140826;-73
2023/09/30 10:25:57;;;;;;;12.10;3.98;;;;;;;17.76;93.28;101384.67;4939355;58;1140659;-72
2023/09/30 10:31:24;;;;;;;11.93;3.05;;;;;;;17.71;92.17;101394.98;5000782;56;1140785;-72
2023/09/30 10:36:34;;;;;;;13.70;3.17;;;;;;;17.80;90.28;101394.10;5054548;56;1140904;-72
2023/09/30 10:41:48;;;;;;;6.93;2.23;;;;;;;17.72;89.77;101397.48;5078980;55;1141009;-71
2023/09/30 10:47:03;;;;;;;8.65;2.92;;;;;;;17.97;88.61;101393.85;5049666;56;1138849;-73
2023/09/30 10:52:10;;;;;;;14.85;3.08;;;;;;;18.15;87.89;101389.43;5016214;57;1138817;-73
2023/09/30 10:57:18;;;;;;;12.90;2.83;;;;;;;18.05;87.54;101390.78;5011647;56;1141122;-73
2023/09/30 11:02:25;;;;;;;12.30;3.00;;;;;;;17.96;87.63;101387.66;5003509;56;1140792;-72
2023/09/30 11:07:32;;;;;;;11.73;2.87;;;;;;;17.91;87.86;101393.44;5004114;56;1140735;-74
2023/09/30 11:12:38;;;;;;;7.33;2.40;;;;;;;17.93;88.33;101394.62;5098737;56;1140768;-72
2023/09/30 11:17:44;;;;;;;8.75;2.47;;;;;;;17.87;87.82;101386.67;5059741;56;1138616;-73
2023/09/30 11:22:50;;;;;;;14.28;3.42;;;;;;;17.84;89.16;101378.96;4960618;56;1138902;-71
2023/09/30 11:27:59;;;;;;;12.90;4.67;;;;;;;17.84;89.30;101382.98;4937038;57;1141172;-71
2023/09/30 11:33:04;;;;;;;11.97;3.33;;;;;;;17.81;88.72;101379.25;4986448;57;1140771;-74
2023/09/30 11:38:10;;;;;;;12.37;2.85;;;;;;;17.85;87.90;101395.86;5097237;55;1140754;-72
2023/09/30 11:43:17;;;;;;;10.75;2.75;;;;;;;17.76;86.71;101381.50;5015005;57;1140520;-72
2023/09/30 11:48:22;;;;;;;14.63;4.95;;;;;;;17.90;87.64;101389.06;5034636;57;1140801;-75
2023/09/30 11:53:30;;;;;;;13.83;3.50;;;;;;;18.18;89.83;101381.11;5021311;56;1140960;-72
2023/09/30 11:58:35;;;;;;;13.13;2.72;;;;;;;18.38;86.99;101384.52;5021973;56;1140993;-74
2023/09/30 12:03:42;;;;;;;10.32;3.27;;;;;;;18.32;84.54;101391.83;5125333;56;1140650;-72
2023/09/30 12:08:48;;;;;;;12.45;3.27;;;;;;;18.29;87.48;101384.92;5098566;56;1140906;-75
2023/09/30 12:13:54;;;;;;;10.75;3.30;;;;;;;18.55;85.74;101387.25;5098445;56;1140732;-74
2023/09/30 12:19:00;;;;;;;8.13;3.30;;;;;;;18.74;83.93;101383.66;5056276;57;1140899;-75
2023/09/30 12:24:07;;;;;;;8.95;3.00;;;;;;;18.83;83.52;101389.44;5099401;56;1138862;-72
2023/09/30 12:29:15;;;;;;;13.38;2.85;;;;;;;18.78;81.52;101386.89;5055666;56;1138855;-73
2023/09/30 12:34:24;;;;;;;8.96;2.64;;;;;;;18.74;82.55;101398.89;5037804;57;1140819;-75
2023/09/30 12:39:33;;;;;;;11.97;3.85;;;;;;;18.92;81.79;101397.09;4992794;57;1139046;-71
2023/09/30 12:44:35;;;;;;;20.32;3.12;;;;;;;18.86;78.76;101388.30;5003822;56;1140962;-72
2023/09/30 12:49:41;;;;;;;9.98;3.50;;;;;;;18.74;80.37;101390.36;5078681;57;1141152;-75
2023/09/30 12:54:48;;;;;;;10.40;2.95;;;;;;;18.64;81.89;101390.89;5064512;57;1139030;-75
2023/09/30 12:59:54;;;;;;;10.05;2.58;;;;;;;18.61;80.69;101388.04;5045189;56;1140919;-73
2023/09/30 13:04:59;;;;;;;9.10;3.33;;;;;;;18.49;82.61;101394.53;4921427;57;1140908;-72
2023/09/30 13:10:05;;;;;;;16.00;3.92;;;;;;;18.39;82.19;101393.75;5014163;58;1138815;-75
2023/09/30 13:15:14;;;;;;;8.00;2.58;;;;;;;18.58;81.97;101404.41;4994818;56;1140926;-74
2023/09/30 13:20:18;;;;;;;13.30;3.65;;;;;;;18.78;81.29;101393.09;5061870;56;1138974;-74
2023/09/30 13:25:24;;;;;;;10.82;2.92;;;;;;;18.99;78.46;101388.77;5006771;56;1140898;-74
2023/09/30 13:30:30;;;;;;;12.20;2.98;;;;;;;19.04;77.83;101382.46;4996178;57;1140824;-74
2023/09/30 13:35:36;;;;;;;7.42;2.35;;;;;;;19.11;77.04;101385.35;5079079;56;1140978;-72
2023/09/30 13:40:41;;;;;;;9.70;2.90;;;;;;;18.89;77.52;101388.00;5099245;56;1138788;-73
2023/09/30 13:45:48;;;;;;;10.98;3.65;;;;;;;18.75;77.65;101384.50;4996766;57;1138783;-72
2023/09/30 13:50:54;;;;;;;18.05;3.00;;;;;;;18.76;78.64;101380.34;4990923;57;1140946;-74
2023/09/30 13:55:59;;;;;;;12.25;3.10;;;;;;;18.96;80.87;101379.19;5048623;57;1141055;-72
2023/09/30 14:01:06;;;;;;;13.98;3.00;;;;;;;19.18;79.77;101393.14;5078225;56;1140856;-72
2023/09/30 14:06:13;;;;;;;14.23;2.90;;;;;;;19.31;78.14;101386.89;4996288;57;1140947;-71
2023/09/30 14:11:19;;;;;;;9.58;2.75;;;;;;;19.19;77.46;101380.08;4995685;57;1140896;-74
2023/09/30 14:16:24;;;;;;;7.20;2.72;;;;;;;19.10;74.92;101378.30;4936256;57;1138877;-74
2023/09/30 14:21:32;;;;;;;10.05;2.33;;;;;;;19.06;75.21;101383.16;4929100;56;1138861;-72
2023/09/30 14:26:37;;;;;;;13.03;3.03;;;;;;;19.08;72.76;101381.16;4996160;56;1141000;-74
2023/09/30 14:31:43;;;;;;;7.53;1.90;;;;;;;19.10;73.54;101383.17;5099170;57;1140831;-74
2023/09/30 14:36:48;;;;;;;6.22;2.58;;;;;;;19.15;73.25;101386.24;5003838;56;1138826;-71
2023/09/30 14:41:55;;;;;;;31.97;14.10;;;;;;;19.16;73.18;101385.25;5075191;56;1138790;-73
2023/09/30 14:47:04;;;;;;;8.20;2.57;;;;;;;19.14;73.83;101383.22;5071380;55;1142911;-73
2023/09/30 14:52:09;;;;;;;6.40;2.92;;;;;;;19.07;72.31;101386.18;4998499;57;1138689;-71
2023/09/30 14:57:15;;;;;;;30.52;11.68;;;;;;;18.98;71.49;101389.27;4936260;57;1138833;-74
2023/09/30 15:02:21;;;;;;;8.53;3.72;;;;;;;18.90;71.57;101379.81;4987456;57;1143125;-74
2023/09/30 15:07:27;;;;;;;20.02;5.50;;;;;;;18.94;72.95;101387.06;5015331;56;1138827;-73
2023/09/30 15:12:32;;;;;;;12.03;5.47;;;;;;;19.01;73.55;101391.30;4997435;57;1141145;-73
2023/09/30 15:17:38;;;;;;;16.93;4.10;;;;;;;19.01;74.38;101389.45;4985661;57;1140874;-72
2023/09/30 15:22:44;;;;;;;12.98;3.72;;;;;;;19.04;74.75;101391.00;4953266;58;1140908;-71
2023/09/30 15:27:49;;;;;;;9.18;3.70;;;;;;;18.92;75.27;101393.91;4943418;57;1140787;-74
2023/09/30 15:32:55;;;;;;;9.48;3.98;;;;;;;18.85;75.61;101394.16;4901760;58;1138907;-72
2023/09/30 15:38:01;;;;;;;13.43;4.22;;;;;;;18.75;75.97;101395.22;4872576;58;1138774;-72
2023/09/30 15:43:06;;;;;;;12.68;5.85;;;;;;;18.70;77.51;101400.18;4935260;57;1140948;-73
2023/09/30 15:48:12;;;;;;;14.03;4.70;;;;;;;18.75;77.21;101394.72;4966935;57;1140732;-74
2023/09/30 15:53:18;;;;;;;12.53;4.87;;;;;;;18.89;77.26;101391.53;4944794;57;1140844;-71
2023/09/30 15:58:25;;;;;;;13.45;4.17;;;;;;;18.86;76.84;101400.36;5055963;57;1140704;-74
2023/09/30 16:03:31;;;;;;;9.80;3.55;;;;;;;18.61;77.32;101405.45;5001302;56;1141210;-72
2023/09/30 16:08:36;;;;;;;13.18;5.33;;;;;;;18.42;77.99;101406.86;4950817;57;1138806;-72
2023/09/30 16:13:43;;;;;;;15.60;4.25;;;;;;;18.19;78.80;101410.88;5012750;57;1140889;-72
2023/09/30 16:18:48;;;;;;;13.70;3.70;;;;;;;18.00;79.65;101413.16;4881304;57;1140881;-72
2023/09/30 16:23:54;;;;;;;8.23;3.12;;;;;;;17.88;80.30;101417.80;4894672;57;1141027;-73
2023/09/30 16:29:00;;;;;;;11.28;3.52;;;;;;;17.70;80.68;101423.56;4989922;57;1138848;-74
2023/09/30 16:34:06;;;;;;;8.14;3.16;;;;;;;17.62;81.37;101417.19;4991382;57;1141176;-74
2023/09/30 16:39:12;;;;;;;10.00;2.98;;;;;;;17.46;81.79;101418.61;4993444;56;1138920;-73
2023/09/30 16:44:17;;;;;;;10.48;3.42;;;;;;;17.30;82.31;101415.66;4997622;55;1140666;-74
2023/09/30 16:49:23;;;;;;;13.43;3.27;;;;;;;17.20;83.01;101412.15;5015318;56;1140890;-73
2023/09/30 16:54:28;;;;;;;21.48;8.10;;;;;;;17.12;83.25;101403.97;5079763;56;1141104;-73
2023/09/30 16:59:34;;;;;;;25.32;9.40;;;;;;;17.04;83.54;101415.86;5000165;55;1140939;-73
2023/09/30 17:04:44;;;;;;;16.87;7.12;;;;;;;16.94;83.82;101416.34;5016358;57;1141132;-72
2023/09/30 17:09:50;;;;;;;40.34;23.90;;;;;;;16.86;84.01;101411.67;4999973;56;1262334;-74
2023/09/30 17:14:55;;;;;;;41.25;22.42;;;;;;;16.82;84.33;101408.92;4929943;56;1143019;-74
2023/09/30 17:20:07;;;;;;;25.50;14.07;;;;;;;16.76;84.56;101414.34;4996385;57;1143119;-72
2023/09/30 17:25:09;;;;;;;16.20;8.05;;;;;;;16.80;85.53;101416.25;5012488;56;1143098;-73
2023/09/30 17:30:15;;;;;;;42.33;18.90;;;;;;;16.88;85.88;101423.08;4943798;57;1140865;-72
2023/09/30 17:35:21;;;;;;;43.37;21.33;;;;;;;16.88;85.77;101418.58;4944771;57;1143090;-74
2023/09/30 17:40:27;;;;;;;41.47;22.60;;;;;;;16.87;85.81;101417.38;5023549;56;1142939;-74
2023/09/30 17:45:33;;;;;;;52.40;27.37;;;;;;;16.61;85.45;101429.52;5004005;57;1143112;-71
2023/09/30 17:50:40;;;;;;;74.23;37.53;;;;;;;16.45;86.51;101442.03;5007203;56;1143078;-73
2023/09/30 17:55:46;;;;;;;54.03;25.97;;;;;;;16.41;87.69;101441.45;5056701;56;1143068;-73
2023/09/30 18:00:52;;;;;;;37.73;16.93;;;;;;;16.46;88.32;101446.40;5011442;56;1142977;-73
2023/09/30 18:06:10;;;;;;;35.48;17.77;;;;;;;16.46;89.19;101437.91;5076481;56;1143133;-74
2023/09/30 18:11:17;;;;;;;37.77;15.47;;;;;;;16.47;89.26;101440.08;4949307;57;1143237;-72
2023/09/30 18:16:25;;;;;;;37.33;15.60;;;;;;;16.45;89.38;101444.70;4936253;57;1142829;-72
2023/09/30 18:21:31;;;;;;;31.60;15.60;;;;;;;16.42;89.62;101447.15;5015706;56;1143107;-74
2023/09/30 18:26:36;;;;;;;32.78;15.72;;;;;;;16.38;90.06;101440.37;5035569;56;1143151;-74
2023/09/30 18:31:44;;;;;;;34.53;15.47;;;;;;;16.34;90.25;101448.81;4999171;56;1142682;-73
2023/09/30 18:36:49;;;;;;;38.53;14.23;;;;;;;16.33;90.45;101453.80;4999997;56;1142984;-72
2023/09/30 18:41:55;;;;;;;47.63;13.80;;;;;;;16.25;89.72;101447.77;4992237;58;1142970;-72
2023/09/30 18:47:00;;;;;;;33.93;11.00;;;;;;;16.14;89.73;101454.53;4944187;58;1142793;-72
2023/09/30 18:52:06;;;;;;;22.07;9.70;;;;;;;16.06;90.27;101447.66;5077840;56;1142851;-72
2023/09/30 18:57:12;;;;;;;21.73;11.47;;;;;;;15.99;90.88;101443.35;4991445;57;1140563;-73
2023/09/30 19:02:18;;;;;;;23.03;9.63;;;;;;;15.95;91.34;101437.06;5098816;56;1143079;-74
2023/09/30 19:07:23;;;;;;;233.35;131.35;;;;;;;15.91;91.26;101453.81;4915797;58;1141179;-72
2023/09/30 19:12:29;;;;;;;82.90;45.13;;;;;;;15.74;90.68;101461.91;4916185;57;1146961;-73
2023/09/30 19:17:35;;;;;;;30.40;11.93;;;;;;;15.62;91.47;101462.95;4935135;57;1143273;-72
2023/09/30 19:22:40;;;;;;;16.35;8.45;;;;;;;15.58;92.09;101472.20;4987024;56;1142854;-72
2023/09/30 19:27:46;;;;;;;21.25;6.70;;;;;;;15.55;92.52;101471.13;4961585;56;1140896;-74
2023/09/30 19:32:52;;;;;;;23.43;8.50;;;;;;;15.52;92.35;101475.82;5022994;56;1140754;-74
2023/09/30 19:37:58;;;;;;;24.92;11.28;;;;;;;15.47;92.68;101483.70;5009282;57;1141068;-75
2023/09/30 19:43:04;;;;;;;23.20;9.77;;;;;;;15.51;93.31;101477.64;4989539;57;1142782;-73
2023/09/30 19:48:11;;;;;;;31.65;12.70;;;;;;;15.57;93.62;101477.17;4990718;57;1140798;-75
2023/09/30 19:53:17;;;;;;;27.93;10.90;;;;;;;15.56;93.38;101474.15;4954663;57;1142994;-73
2023/09/30 19:58:22;;;;;;;22.73;8.27;;;;;;;15.45;92.90;101475.47;4970588;57;1142967;-75
2023/09/30 20:03:28;;;;;;;18.10;8.87;;;;;;;15.41;93.25;101467.39;4944069;57;1235193;-73
2023/09/30 20:08:34;;;;;;;16.68;7.12;;;;;;;15.30;93.12;101470.07;4929270;58;1140881;-74
2023/09/30 20:13:39;;;;;;;15.00;6.53;;;;;;;15.16;93.22;101477.87;4966469;57;1140795;-75
2023/09/30 20:18:46;;;;;;;19.75;6.28;;;;;;;14.95;93.41;101467.64;4985334;57;1140914;-75
2023/09/30 20:23:53;;;;;;;14.15;5.35;;;;;;;14.92;94.16;101468.73;4952018;57;1140869;-75
2023/09/30 20:28:58;;;;;;;23.03;8.23;;;;;;;14.97;94.75;101475.03;4926744;58;1141030;-74
2023/09/30 20:34:06;;;;;;;16.70;7.27;;;;;;;14.94;94.58;101473.94;4911167;57;1140810;-74
2023/09/30 20:39:13;;;;;;;20.13;6.10;;;;;;;14.93;95.12;101470.91;4786214;59;1140826;-73
2023/09/30 20:44:19;;;;;;;25.33;7.63;;;;;;;14.86;94.80;101471.03;4906305;58;1141082;-74
2023/09/30 20:49:24;;;;;;;20.47;6.77;;;;;;;14.65;94.91;101477.13;4923343;58;1141033;-73
2023/09/30 20:54:36;;;;;;;18.43;7.60;;;;;;;14.47;95.47;101480.38;4939719;57;1140751;-75
2023/09/30 20:59:42;;;;;;;20.40;6.25;;;;;;;14.45;96.76;101475.66;4915847;58;1141101;-73
2023/09/30 21:04:48;;;;;;;15.60;6.55;;;;;;;14.46;96.90;101470.22;4899072;58;1141006;-74
2023/09/30 21:09:53;;;;;;;17.43;6.40;;;;;;;14.49;96.90;101478.45;4924919;58;1140938;-73
2023/09/30 21:14:59;;;;;;;17.73;6.37;;;;;;;14.37;96.41;101477.54;4912367;58;1140690;-74
2023/09/30 21:20:05;;;;;;;23.30;7.30;;;;;;;14.35;97.71;101479.02;4877119;58;1141042;-74
2023/09/30 21:25:11;;;;;;;24.43;10.60;;;;;;;14.41;97.90;101484.36;4856896;58;1140913;-75
2023/09/30 21:30:17;;;;;;;15.73;8.80;;;;;;;14.40;97.95;101476.86;4785622;59;1142964;-75
2023/09/30 21:35:22;;;;;;;23.27;9.60;;;;;;;14.36;97.66;101495.84;4922827;57;1141048;-74
2023/09/30 21:40:28;;;;;;;24.50;9.03;;;;;;;14.31;98.29;101480.22;4916130;58;1140870;-74
2023/09/30 21:45:34;;;;;;;17.93;7.53;;;;;;;14.34;98.35;101482.64;4992185;57;1140765;-74
2023/09/30 21:50:40;;;;;;;19.67;7.55;;;;;;;14.27;98.09;101485.41;4976869;57;1140934;-74
2023/09/30 21:55:45;;;;;;;26.20;10.85;;;;;;;14.30;98.93;101479.85;4991815;57;1140722;-75
2023/09/30 22:00:54;;;;;;;18.20;7.20;;;;;;;14.36;99.26;101486.01;4991702;58;1142812;-73
2023/09/30 22:05:58;;;;;;;21.33;6.95;;;;;;;14.34;99.29;101481.31;5050918;56;1140940;-74
2023/09/30 22:11:04;;;;;;;17.47;6.83;;;;;;;14.35;99.39;101480.83;5094542;56;1140949;-75
2023/09/30 22:16:10;;;;;;;16.90;6.13;;;;;;;14.34;99.33;101481.31;5074982;56;1140875;-73
2023/09/30 22:21:16;;;;;;;17.73;5.27;;;;;;;14.30;99.13;101474.53;5020807;56;1140579;-73
2023/09/30 22:26:22;;;;;;;12.97;4.77;;;;;;;14.14;98.46;101469.19;5040355;57;1140744;-73
2023/09/30 22:31:27;;;;;;;14.93;4.40;;;;;;;13.95;98.96;101476.39;5020892;57;1140777;-74
2023/09/30 22:36:33;;;;;;;27.87;12.93;;;;;;;13.79;100.00;101476.72;5024276;57;1140956;-73
2023/09/30 22:41:39;;;;;;;26.93;12.65;;;;;;;13.69;100.00;101471.26;5119094;56;1145207;-73
2023/09/30 22:46:44;;;;;;;21.90;6.85;;;;;;;13.59;100.00;101472.92;5099694;56;1145106;-74
2023/09/30 22:51:50;;;;;;;14.18;5.58;;;;;;;13.50;100.00;101477.58;5185696;55;1143125;-73